logo
Search for airport 
image banner adimage banner adimage banner ad
image banner ad

DTTF - Gafsa/Ksar

Located in Gafsa, Tunisia

ICAO - DTTF, IATA - GAF

Data provided by Airmate  

General information

Coordinates: N34°24'56" E8°48'49"
Elevation is 1060 feet MSL.
 
View others Airports in Gafsa Governorate

Operational data

Special qualification required
Current time UTC:
Current local time:
Weather
METAR: DTTF 241800Z 36010KT 8000 FEW026 17/M02 Q1014 NOSIG
TAF: TAF DTTF 241800Z 2419/2504 01012KT 9999 FEW026 BECMG 2422/2424 08004KT
View NOTAMs / SUP AIP / TFR affecting this airport [VIEW]
Communications frequencies: [VIEW]

Runways:

RWY identifierQFULength (ft)Width (ft)SurfaceLDA (ft)
0549°9514148ASP
23229°9514148ASP

Airport contact information

Address: Gafsa Tunisia

Satellite view of DTTF